Metar Cercanos

 

LEPA - Palma De Mallorc, Spain
Distance from station: ONO 38km
Actualización: Sat, 16-Jan-2021 3:00am CET
Parcialmente nuboso
Parcialmente nuboso
 Viento del calm
Viento: Calma
Temperatura: 4°C
Rocío: 3°C
Humedad: 93%
Barómetro: 1022 hPa
Clouds: Parcialmente nuboso
Visibility: 10 km
Cloud details: Few Clouds 762 m
Parcialmente nuboso 1372 m
2021/01/16 02:00 LEPA 160200Z 00000KT 9999 FEW025 SCT045 04/03 Q1022 NOSIG
LEMH - Mahon/Menorca Is, Spain
Distance from station: ENE 105km
Actualización: Sat, 16-Jan-2021 3:00am CET
Cubierto
Cubierto
 Viento del N
Viento: N 39 km/h
Temperatura: 9°C
Sensación frio: 4°C
Rocío: 4°C
Humedad: 71%
Barómetro: 1020 hPa
Clouds: Cubierto
Visibility: 10 km
Cloud details: Few Clouds 792 m
Muy nuboso 945 m
Cubierto 1128 m
2021/01/16 02:00 LEMH 160200Z AUTO 36021KT 9999 FEW026/// BKN031/// OVC037/// 09/04 Q1020
 
LEIB - Ibiza/Es Codola, Spain
Distance from station: OSO 165km
Actualización: Sat, 16-Jan-2021 3:00am CET
Despejado
Despejado
 Viento del NO
Viento: NO 7 km/h
Temperatura: 6°C
Sensación frio: 4°C
Rocío: 4°C
Humedad: 87%
Barómetro: 1022 hPa
Resumen: Despejado
Visibility: greater than 10 km
2021/01/16 02:00 LEIB 160200Z AUTO 31004KT CAVOK 06/04 Q1022
LEBL - Barcelona Airpor, Spain
Distance from station: NNO 225km
Actualización: Sat, 16-Jan-2021 3:00am CET
Despejado
Despejado
 Viento del NNO
Viento: NNO 17 km/h
Temperatura: 4°C
Sensación frio: 0°C
Rocío: 1°C
Humedad: 81%
Barómetro: 1021 hPa
Resumen: Despejado
Visibility: greater than 10 km
2021/01/16 02:00 LEBL 160200Z 33009KT CAVOK 04/01 Q1021 NOSIG
 
LEVC - Valencia (civ/Mi, Spain
Distance from station: NO 188km
Actualización: Sat, 16-Jan-2021 3:00am CET
Despejado
Despejado
 Viento del SO
Viento: SO 9 km/h
Temperatura: 6°C
Sensación frio: 4°C
Rocío: -1°C
Humedad: 61%
Barómetro: 1022 hPa
Resumen: Despejado
Visibility: greater than 10 km
2021/01/16 02:00 LEVC 160200Z 23005KT CAVOK 06/M01 Q1022 NOSIG
LEGE - Gerona/Costa Bra, Spain
Distance from station: N 276km
Actualización: Sat, 16-Jan-2021 3:00am CET
Parcialmente nuboso
Parcialmente nuboso
 Viento del NO
Viento: NO 7 km/h
Temperatura: 4°C
Sensación frio: 2°C
Rocío: 1°C
Humedad: 81%
Barómetro: 1021 hPa
Clouds: Parcialmente nuboso
Visibility: 10 km
Cloud details: Parcialmente nuboso 762 m
2021/01/16 02:00 LEGE 160200Z 32004KT 270V020 9999 SCT025 04/01 Q1021
 
LEAL - Alicante/El Alte, Spain
Distance from station: OSO 344km
Actualización: Sat, 16-Jan-2021 3:00am CET
Despejado
Despejado
 Viento del NO
Viento: NO 22 km/h
Temperatura: 9°C
Sensación frio: 6°C
Rocío: -2°C
Humedad: 46%
Barómetro: 1022 hPa
Resumen: Despejado
Visibility: greater than 10 km
2021/01/16 02:00 LEAL 160200Z 31012KT CAVOK 09/M02 Q1022 NOSIG
LEAM - Almeria Airport, Spain
Distance from station: SSO 56km
Actualización: Sat, 16-Jan-2021 3:00am CET
Despejado
Despejado
 Viento del ENE
Viento: ENE 7 km/h
Temperatura: 8°C
Sensación frio: 7°C
Rocío: 1°C
Humedad: 62%
Barómetro: 1023 hPa
Resumen: Despejado
Visibility: greater than 10 km
2021/01/16 02:00 LEAM 160200Z AUTO 07004KT 330V130 CAVOK 08/01 Q1023
 
LEZG - Zaragoza (mil/Ci, Spain
Distance from station: NO 431km
Actualización: Sat, 16-Jan-2021 3:00am CET
Despejado
Despejado
 Viento del ONO
Viento: ONO 43 km/h
Temperatura: 7°C
Sensación frio: 2°C
Rocío: 2°C
Humedad: 71%
Barómetro: 1024 hPa
Resumen: Despejado
Visibility: greater than 10 km
2021/01/16 02:00 LEZG 160200Z 29023KT CAVOK 07/02 Q1024
LEMD - Madrid/Barajas, Spain
Distance from station: ONO 234km
Actualización: Sat, 16-Jan-2021 3:00am CET
Mist, Patches of, Freezing, Niebla, Parcialmente nuboso
Mist, Patches of, Freezing, Niebla, Parcialmente nuboso
 Viento del calm
Viento: Calma
Temperatura: -7°C
Rocío: -7°C
Humedad: 100%
Barómetro: 1027 hPa
Resumen: Mist, Patches of, Freezing, Niebla
Clouds: Parcialmente nuboso
Visibility: 1 km
2021/01/16 02:00 LEMD 160200Z 00000KT 1200 0100N R32L/1700D BR BCFZFG NSC M07/M07 Q1027 NOSIG
 
LEGR - Granada Airport, Spain
Distance from station: OSO 62km
Actualización: Sat, 16-Jan-2021 3:00am CET

 Viento del S
Viento: S 2 km/h
Temperatura: -3°C
Rocío: -3°C
Humedad: 100%
Barómetro: 1026 hPa
Visibility: 10 km
2021/01/16 02:00 LEGR 160200Z AUTO 17001KT 9999 ////// M03/M03 Q1026
LEMG - Malaga (civ/Mil), Spain
Distance from station: OSO 227km
Actualización: Sat, 16-Jan-2021 3:00am CET
Despejado
Despejado
 Viento del O
Viento: O 30 km/h
Temperatura: 12°C
Rocío: 2°C
Humedad: 51%
Barómetro: 1023 hPa
Resumen: Despejado
Visibility: greater than 10 km
2021/01/16 02:00 LEMG 160200Z 28016KT CAVOK 12/02 Q1023 NOSIG
 
LEZL - Sevilla (civ/Mil, Spain
Distance from station: S 318km
Actualización: Sat, 16-Jan-2021 3:00am CET
Mist, Despejado
Mist, Despejado
 Viento del calm
Viento: Calma
Temperatura: 4°C
Rocío: 2°C
Humedad: 87%
Barómetro: 1027 hPa
Resumen: Mist
Clouds: Despejado
Visibility: 5 km
2021/01/16 02:00 LEZL 160200Z AUTO 00000KT 5000 BR NCD 04/02 Q1027
LEVT - Vitoria, Spain
Distance from station: NO 226km
Actualización: Sat, 16-Jan-2021 3:00am CET
Parcialmente nuboso
Parcialmente nuboso
 Viento del O
Viento: O 7 km/h
Temperatura: 4°C
Sensación frio: 2°C
Rocío: 2°C
Humedad: 87%
Barómetro: 1029 hPa
Clouds: Parcialmente nuboso
Visibility: 10 km
Cloud details: Few Clouds 610 m
Parcialmente nuboso 975 m
2021/01/16 02:00 LEVT 160200Z 26004KT 230V290 9999 FEW020 SCT032 04/02 Q1029
 
LEBB - Bilbao/Sondica, Spain
Distance from station: NNO 235km
Actualización: Sat, 16-Jan-2021 3:00am CET
Muy nuboso
Muy nuboso
 Viento del ESE
Viento: ESE 6 km/h
Temperatura: 7°C
Rocío: 7°C
Humedad: 100%
Barómetro: 1030 hPa
Clouds: Muy nuboso
Visibility: 10 km
Cloud details: Few Clouds 884 m
Parcialmente nuboso 1189 m
Muy nuboso 1402 m
2021/01/16 02:00 LEBB 160200Z AUTO 11003KT 080V140 9999 FEW029 SCT039 BKN046 07/07 Q1030
LESO - San Sebastian/Fu, Spain
Distance from station: N 231km
Actualización: Sat, 16-Jan-2021 3:00am CET
Few Clouds
Few Clouds
 Viento del varies
Viento: varies 4 km/h
Temperatura: 7°C
Rocío: 5°C
Humedad: 87%
Barómetro: 1030 hPa
Clouds: Few Clouds
Visibility: 10 km
Cloud details: Few Clouds 1280 m
2021/01/16 02:00 LESO 160200Z AUTO VRB02KT 9999 FEW042 07/05 Q1030
 
LEVD - Valladolid(Mil/C, Spain
Distance from station: ONO 239km
Actualización: Sat, 16-Jan-2021 3:00am CET
Freezing fog, Cubierto
Freezing fog, Cubierto
 Viento del varies
Viento: varies 4 km/h
Temperatura: -5°C
Rocío: -5°C
Humedad: 100%
Barómetro: 1029 hPa
Resumen: Freezing Fog
Clouds: Cubierto
Visibility: 0 km
Cloud details: Cubierto 30 m
2021/01/16 02:00 LEVD 160200Z AUTO VRB02KT 0250 0200SW R23/0700N R05/0600N FZFG VV001 M05/M05 Q1029
LESA - Salamanca (civ/M, Spain
Distance from station: ONO 349km
Actualización: Sat, 16-Jan-2021 3:00am CET
Freezing fog, Cubierto
Freezing fog, Cubierto
 Viento del calm
Viento: Calma
Temperatura: -3°C
Rocío: -4°C
Humedad: 93%
Barómetro: 1030 hPa
Resumen: Freezing Fog
Clouds: Cubierto
Visibility: 0 km
Cloud details: Cubierto 61 m
2021/01/16 02:00 LESA 160200Z AUTO 00000KT 0250 R21/0650N FZFG VV002 M03/M04 Q1030
 
LEXJ - Santander/Paraya, Spain
Distance from station: NNO 247km
Actualización: Sat, 16-Jan-2021 3:00am CET
Despejado
Despejado
 Viento del S
Viento: S 6 km/h
Temperatura: 4°C
Rocío: 4°C
Humedad: 100%
Barómetro: 1030 hPa
Resumen: Despejado
Visibility: greater than 10 km
2021/01/16 02:00 LEXJ 160200Z AUTO 19003KT CAVOK 04/04 Q1030
LEAS - Asturias/Aviles, Spain
Distance from station: NO 214km
Actualización: Sat, 16-Jan-2021 3:00am CET
Despejado
Despejado
 Viento del OSO
Viento: OSO 13 km/h
Temperatura: 4°C
Sensación frio: 1°C
Rocío: 2°C
Humedad: 87%
Barómetro: 1030 hPa
Resumen: Despejado
Visibility: greater than 10 km
2021/01/16 02:00 LEAS 160200Z AUTO 25007KT CAVOK 04/02 Q1030
 
LECO - La Coruna/Alvedr, Spain
Distance from station: ONO 222km
Actualización: Sat, 16-Jan-2021 3:00am CET
Mist, Despejado
Mist, Despejado
 Viento del S
Viento: S 7 km/h
Temperatura: 1°C
Sensación frio: -2°C
Rocío: 1°C
Humedad: 100%
Barómetro: 1030 hPa
Resumen: Mist
Clouds: Despejado
Visibility: 4 km
2021/01/16 02:00 LECO 160200Z AUTO 17004KT 150V250 4000 R21/1700U R03/1400U BR NCD 01/01 Q1030
LEVX - Vigo/Peinador, Spain
Distance from station: O 214km
Actualización: Sat, 16-Jan-2021 3:00am CET
Mist, Parcialmente nuboso
Mist, Parcialmente nuboso
 Viento del SO
Viento: SO 13 km/h
Temperatura: 2°C
Sensación frio: -1°C
Rocío: 2°C
Humedad: 100%
Barómetro: 1030 hPa
Resumen: Mist
Clouds: Parcialmente nuboso
Visibility: 3 km
2021/01/16 02:00 LEVX 160200Z 22007KT 3000 BR NSC 02/02 Q1030 TEMPO 1500 BCFG